sensor_id;sensor_type;location;lat;lon;timestamp;P1;durP1;ratioP1;P2;durP2;ratioP2
12328;SDS011;6230;52.390;10.256;2023-05-10T00:02:20;6.78;;;6.18;;
12328;SDS011;6230;52.390;10.256;2023-05-10T00:04:45;6.70;;;6.10;;
12328;SDS011;6230;52.390;10.256;2023-05-10T00:07:11;7.72;;;5.65;;
12328;SDS011;6230;52.390;10.256;2023-05-10T00:09:36;7.05;;;6.43;;
12328;SDS011;6230;52.390;10.256;2023-05-10T00:12:02;7.15;;;6.45;;
12328;SDS011;6230;52.390;10.256;2023-05-10T00:14:28;6.63;;;6.03;;
12328;SDS011;6230;52.390;10.256;2023-05-10T00:16:53;7.60;;;6.28;;
12328;SDS011;6230;52.390;10.256;2023-05-10T00:19:19;7.72;;;5.20;;
12328;SDS011;6230;52.390;10.256;2023-05-10T00:21:44;8.02;;;7.45;;
12328;SDS011;6230;52.390;10.256;2023-05-10T00:24:10;10.30;;;9.48;;
12328;SDS011;6230;52.390;10.256;2023-05-10T00:26:36;7.10;;;5.55;;
12328;SDS011;6230;52.390;10.256;2023-05-10T00:29:01;5.70;;;5.20;;
12328;SDS011;6230;52.390;10.256;2023-05-10T00:31:27;6.65;;;5.35;;
12328;SDS011;6230;52.390;10.256;2023-05-10T00:33:52;7.80;;;5.50;;
12328;SDS011;6230;52.390;10.256;2023-05-10T00:36:18;6.38;;;5.53;;
12328;SDS011;6230;52.390;10.256;2023-05-10T00:38:43;7.00;;;5.35;;
12328;SDS011;6230;52.390;10.256;2023-05-10T00:41:09;7.90;;;6.10;;
12328;SDS011;6230;52.390;10.256;2023-05-10T00:43:35;6.00;;;5.43;;
12328;SDS011;6230;52.390;10.256;2023-05-10T00:46:00;5.65;;;5.15;;
12328;SDS011;6230;52.390;10.256;2023-05-10T00:48:26;6.97;;;6.38;;
12328;SDS011;6230;52.390;10.256;2023-05-10T00:50:53;6.78;;;5.47;;
12328;SDS011;6230;52.390;10.256;2023-05-10T00:53:18;6.97;;;6.28;;
12328;SDS011;6230;52.390;10.256;2023-05-10T00:55:44;6.47;;;5.88;;
12328;SDS011;6230;52.390;10.256;2023-05-10T00:58:10;6.57;;;5.97;;
12328;SDS011;6230;52.390;10.256;2023-05-10T01:00:35;6.75;;;6.07;;
12328;SDS011;6230;52.390;10.256;2023-05-10T01:03:03;6.97;;;6.32;;
12328;SDS011;6230;52.390;10.256;2023-05-10T01:05:29;6.72;;;6.07;;
12328;SDS011;6230;52.390;10.256;2023-05-10T01:07:55;7.57;;;6.88;;
12328;SDS011;6230;52.390;10.256;2023-05-10T01:10:21;7.95;;;7.25;;
12328;SDS011;6230;52.390;10.256;2023-05-10T01:12:47;9.68;;;8.80;;
12328;SDS011;6230;52.390;10.256;2023-05-10T01:15:13;11.40;;;10.48;;
12328;SDS011;6230;52.390;10.256;2023-05-10T01:17:40;10.88;;;10.15;;
12328;SDS011;6230;52.390;10.256;2023-05-10T01:20:09;7.55;;;6.95;;
12328;SDS011;6230;52.390;10.256;2023-05-10T01:25:37;7.78;;;7.15;;
12328;SDS011;6230;52.390;10.256;2023-05-10T01:31:08;11.80;;;11.00;;
12328;SDS011;6230;52.390;10.256;2023-05-10T01:34:01;10.18;;;8.98;;
12328;SDS011;6230;52.390;10.256;2023-05-10T01:36:31;8.50;;;7.85;;
12328;SDS011;6230;52.390;10.256;2023-05-10T01:39:06;11.35;;;10.52;;
12328;SDS011;6230;52.390;10.256;2023-05-10T01:47:02;10.38;;;8.73;;
12328;SDS011;6230;52.390;10.256;2023-05-10T01:49:34;10.85;;;9.80;;
12328;SDS011;6230;52.390;10.256;2023-05-10T01:52:10;18.75;;;17.42;;
12328;SDS011;6230;52.390;10.256;2023-05-10T01:54:39;8.75;;;8.15;;
12328;SDS011;6230;52.390;10.256;2023-05-10T01:57:09;9.57;;;8.30;;
12328;SDS011;6230;52.390;10.256;2023-05-10T01:59:39;9.77;;;8.97;;
12328;SDS011;6230;52.390;10.256;2023-05-10T02:02:07;11.25;;;10.38;;
12328;SDS011;6230;52.390;10.256;2023-05-10T02:04:36;10.00;;;9.15;;
12328;SDS011;6230;52.390;10.256;2023-05-10T02:07:03;11.20;;;10.43;;
12328;SDS011;6230;52.390;10.256;2023-05-10T02:09:31;10.95;;;9.18;;
12328;SDS011;6230;52.390;10.256;2023-05-10T02:11:58;11.07;;;10.27;;
12328;SDS011;6230;52.390;10.256;2023-05-10T02:14:27;10.07;;;9.18;;
12328;SDS011;6230;52.390;10.256;2023-05-10T02:16:55;11.95;;;10.85;;
12328;SDS011;6230;52.390;10.256;2023-05-10T02:19:23;10.80;;;9.75;;
12328;SDS011;6230;52.390;10.256;2023-05-10T02:21:50;11.20;;;10.38;;
12328;SDS011;6230;52.390;10.256;2023-05-10T02:24:16;11.27;;;10.48;;
12328;SDS011;6230;52.390;10.256;2023-05-10T02:26:44;11.18;;;10.18;;
12328;SDS011;6230;52.390;10.256;2023-05-10T02:29:12;11.65;;;9.38;;
12328;SDS011;6230;52.390;10.256;2023-05-10T02:31:38;10.05;;;9.45;;
12328;SDS011;6230;52.390;10.256;2023-05-10T02:34:05;10.40;;;9.48;;
12328;SDS011;6230;52.390;10.256;2023-05-10T02:36:32;13.60;;;12.38;;
12328;SDS011;6230;52.390;10.256;2023-05-10T02:38:58;13.45;;;12.45;;
12328;SDS011;6230;52.390;10.256;2023-05-10T02:41:26;11.30;;;10.32;;
12328;SDS011;6230;52.390;10.256;2023-05-10T02:43:54;11.85;;;10.93;;
12328;SDS011;6230;52.390;10.256;2023-05-10T02:46:24;10.25;;;9.40;;
12328;SDS011;6230;52.390;10.256;2023-05-10T02:48:49;10.75;;;9.77;;
12328;SDS011;6230;52.390;10.256;2023-05-10T02:51:15;10.30;;;9.50;;
12328;SDS011;6230;52.390;10.256;2023-05-10T02:53:43;11.65;;;10.75;;
12328;SDS011;6230;52.390;10.256;2023-05-10T02:56:15;11.55;;;10.55;;
12328;SDS011;6230;52.390;10.256;2023-05-10T02:58:47;11.10;;;10.30;;
12328;SDS011;6230;52.390;10.256;2023-05-10T03:01:12;11.82;;;10.93;;
12328;SDS011;6230;52.390;10.256;2023-05-10T03:03:38;11.65;;;10.75;;
12328;SDS011;6230;52.390;10.256;2023-05-10T03:06:04;11.98;;;11.07;;
12328;SDS011;6230;52.390;10.256;2023-05-10T03:08:29;11.68;;;10.88;;
12328;SDS011;6230;52.390;10.256;2023-05-10T03:13:56;11.35;;;10.45;;
12328;SDS011;6230;52.390;10.256;2023-05-10T03:16:56;11.40;;;10.60;;
12328;SDS011;6230;52.390;10.256;2023-05-10T03:19:42;11.13;;;10.30;;
12328;SDS011;6230;52.390;10.256;2023-05-10T03:22:12;10.90;;;10.13;;
12328;SDS011;6230;52.390;10.256;2023-05-10T03:24:43;12.20;;;11.20;;
12328;SDS011;6230;52.390;10.256;2023-05-10T03:27:11;10.80;;;10.10;;
12328;SDS011;6230;52.390;10.256;2023-05-10T03:29:39;11.55;;;10.75;;
12328;SDS011;6230;52.390;10.256;2023-05-10T03:32:05;12.93;;;11.63;;
12328;SDS011;6230;52.390;10.256;2023-05-10T03:34:30;13.65;;;11.73;;
12328;SDS011;6230;52.390;10.256;2023-05-10T03:36:56;11.77;;;10.98;;
12328;SDS011;6230;52.390;10.256;2023-05-10T03:39:22;11.30;;;10.40;;
12328;SDS011;6230;52.390;10.256;2023-05-10T03:41:47;14.63;;;13.63;;
12328;SDS011;6230;52.390;10.256;2023-05-10T03:44:13;12.13;;;11.15;;
12328;SDS011;6230;52.390;10.256;2023-05-10T03:46:38;11.67;;;10.87;;
12328;SDS011;6230;52.390;10.256;2023-05-10T03:49:04;11.77;;;10.95;;
12328;SDS011;6230;52.390;10.256;2023-05-10T03:51:30;13.18;;;12.27;;
12328;SDS011;6230;52.390;10.256;2023-05-10T03:53:56;12.23;;;11.02;;
12328;SDS011;6230;52.390;10.256;2023-05-10T03:56:22;12.07;;;11.18;;
12328;SDS011;6230;52.390;10.256;2023-05-10T03:58:47;11.45;;;10.48;;
12328;SDS011;6230;52.390;10.256;2023-05-10T04:01:13;12.25;;;11.45;;
12328;SDS011;6230;52.390;10.256;2023-05-10T04:03:38;11.18;;;10.45;;
12328;SDS011;6230;52.390;10.256;2023-05-10T04:06:04;12.02;;;11.18;;
12328;SDS011;6230;52.390;10.256;2023-05-10T04:08:30;11.18;;;10.38;;
12328;SDS011;6230;52.390;10.256;2023-05-10T04:11:09;12.50;;;11.52;;
12328;SDS011;6230;52.390;10.256;2023-05-10T04:13:37;12.38;;;11.27;;
12328;SDS011;6230;52.390;10.256;2023-05-10T04:16:04;14.20;;;13.07;;
12328;SDS011;6230;52.390;10.256;2023-05-10T04:18:30;14.45;;;13.32;;
12328;SDS011;6230;52.390;10.256;2023-05-10T04:20:56;13.75;;;12.75;;
12328;SDS011;6230;52.390;10.256;2023-05-10T04:23:22;12.88;;;11.88;;
12328;SDS011;6230;52.390;10.256;2023-05-10T04:25:47;16.52;;;15.52;;
12328;SDS011;6230;52.390;10.256;2023-05-10T04:28:13;12.48;;;11.68;;
12328;SDS011;6230;52.390;10.256;2023-05-10T04:30:39;12.30;;;11.30;;
12328;SDS011;6230;52.390;10.256;2023-05-10T04:33:05;13.88;;;12.88;;
12328;SDS011;6230;52.390;10.256;2023-05-10T04:35:31;14.82;;;13.93;;
12328;SDS011;6230;52.390;10.256;2023-05-10T04:37:56;15.32;;;14.32;;
12328;SDS011;6230;52.390;10.256;2023-05-10T04:40:22;14.30;;;13.30;;
12328;SDS011;6230;52.390;10.256;2023-05-10T04:42:47;15.90;;;14.32;;
12328;SDS011;6230;52.390;10.256;2023-05-10T04:45:13;13.38;;;12.38;;
12328;SDS011;6230;52.390;10.256;2023-05-10T04:47:41;18.90;;;17.27;;
12328;SDS011;6230;52.390;10.256;2023-05-10T04:50:07;23.45;;;21.95;;
12328;SDS011;6230;52.390;10.256;2023-05-10T04:52:33;41.67;;;39.33;;
12328;SDS011;6230;52.390;10.256;2023-05-10T04:54:58;17.83;;;16.63;;
12328;SDS011;6230;52.390;10.256;2023-05-10T04:57:24;27.83;;;26.00;;
12328;SDS011;6230;52.390;10.256;2023-05-10T04:59:49;16.20;;;15.20;;
12328;SDS011;6230;52.390;10.256;2023-05-10T05:02:15;15.82;;;14.70;;
12328;SDS011;6230;52.390;10.256;2023-05-10T05:04:40;15.27;;;14.18;;
12328;SDS011;6230;52.390;10.256;2023-05-10T05:07:06;16.08;;;14.93;;
12328;SDS011;6230;52.390;10.256;2023-05-10T05:09:31;25.55;;;24.05;;
12328;SDS011;6230;52.390;10.256;2023-05-10T05:11:57;17.40;;;16.30;;
12328;SDS011;6230;52.390;10.256;2023-05-10T05:14:23;18.23;;;17.02;;
12328;SDS011;6230;52.390;10.256;2023-05-10T05:16:50;17.75;;;16.38;;
12328;SDS011;6230;52.390;10.256;2023-05-10T05:19:16;17.77;;;16.42;;
12328;SDS011;6230;52.390;10.256;2023-05-10T05:21:42;18.85;;;17.55;;
12328;SDS011;6230;52.390;10.256;2023-05-10T05:24:07;17.30;;;16.30;;
12328;SDS011;6230;52.390;10.256;2023-05-10T05:26:33;20.15;;;18.27;;
12328;SDS011;6230;52.390;10.256;2023-05-10T05:28:59;19.27;;;17.55;;
12328;SDS011;6230;52.390;10.256;2023-05-10T05:31:24;19.95;;;18.73;;
12328;SDS011;6230;52.390;10.256;2023-05-10T05:33:50;20.25;;;18.90;;
12328;SDS011;6230;52.390;10.256;2023-05-10T05:36:16;22.85;;;21.42;;
12328;SDS011;6230;52.390;10.256;2023-05-10T05:38:41;18.95;;;17.65;;
12328;SDS011;6230;52.390;10.256;2023-05-10T05:41:07;20.65;;;19.33;;
12328;SDS011;6230;52.390;10.256;2023-05-10T05:43:33;17.98;;;16.77;;
12328;SDS011;6230;52.390;10.256;2023-05-10T05:45:59;21.52;;;20.25;;
12328;SDS011;6230;52.390;10.256;2023-05-10T05:48:24;20.05;;;18.60;;
12328;SDS011;6230;52.390;10.256;2023-05-10T05:50:50;15.73;;;14.63;;
12328;SDS011;6230;52.390;10.256;2023-05-10T05:53:19;18.20;;;16.40;;
12328;SDS011;6230;52.390;10.256;2023-05-10T05:55:52;18.85;;;17.55;;
12328;SDS011;6230;52.390;10.256;2023-05-10T05:58:19;17.90;;;16.52;;
12328;SDS011;6230;52.390;10.256;2023-05-10T06:00:45;16.50;;;15.18;;
12328;SDS011;6230;52.390;10.256;2023-05-10T06:03:11;14.95;;;13.75;;
12328;SDS011;6230;52.390;10.256;2023-05-10T06:05:36;15.30;;;14.10;;
12328;SDS011;6230;52.390;10.256;2023-05-10T06:08:02;16.00;;;14.70;;
12328;SDS011;6230;52.390;10.256;2023-05-10T06:10:27;16.92;;;15.73;;
12328;SDS011;6230;52.390;10.256;2023-05-10T06:12:53;14.75;;;13.55;;
12328;SDS011;6230;52.390;10.256;2023-05-10T06:15:19;14.88;;;13.50;;
12328;SDS011;6230;52.390;10.256;2023-05-10T06:17:44;14.73;;;13.52;;
12328;SDS011;6230;52.390;10.256;2023-05-10T06:20:12;12.25;;;11.15;;
12328;SDS011;6230;52.390;10.256;2023-05-10T06:22:38;13.18;;;11.98;;
12328;SDS011;6230;52.390;10.256;2023-05-10T06:25:03;12.18;;;11.27;;
12328;SDS011;6230;52.390;10.256;2023-05-10T06:27:29;11.52;;;10.52;;
12328;SDS011;6230;52.390;10.256;2023-05-10T06:29:55;16.35;;;15.25;;
12328;SDS011;6230;52.390;10.256;2023-05-10T06:32:20;16.17;;;14.70;;
12328;SDS011;6230;52.390;10.256;2023-05-10T06:34:46;12.43;;;11.27;;
12328;SDS011;6230;52.390;10.256;2023-05-10T06:37:11;13.88;;;12.57;;
12328;SDS011;6230;52.390;10.256;2023-05-10T06:39:37;11.88;;;10.05;;
12328;SDS011;6230;52.390;10.256;2023-05-10T06:42:02;11.80;;;10.50;;
12328;SDS011;6230;52.390;10.256;2023-05-10T06:44:29;14.07;;;11.40;;
12328;SDS011;6230;52.390;10.256;2023-05-10T06:46:55;11.50;;;10.50;;
12328;SDS011;6230;52.390;10.256;2023-05-10T06:49:20;13.32;;;12.02;;
12328;SDS011;6230;52.390;10.256;2023-05-10T06:51:46;12.20;;;11.05;;
12328;SDS011;6230;52.390;10.256;2023-05-10T06:54:12;12.60;;;11.40;;
12328;SDS011;6230;52.390;10.256;2023-05-10T06:56:37;14.83;;;13.57;;
12328;SDS011;6230;52.390;10.256;2023-05-10T06:59:03;17.63;;;16.10;;
12328;SDS011;6230;52.390;10.256;2023-05-10T07:01:28;21.27;;;19.57;;
12328;SDS011;6230;52.390;10.256;2023-05-10T07:03:54;19.40;;;17.80;;
12328;SDS011;6230;52.390;10.256;2023-05-10T07:06:19;19.88;;;18.30;;
12328;SDS011;6230;52.390;10.256;2023-05-10T07:08:45;23.80;;;22.13;;
12328;SDS011;6230;52.390;10.256;2023-05-10T07:11:10;19.88;;;18.27;;
12328;SDS011;6230;52.390;10.256;2023-05-10T07:13:36;23.33;;;21.52;;
12328;SDS011;6230;52.390;10.256;2023-05-10T07:16:04;22.08;;;20.08;;
12328;SDS011;6230;52.390;10.256;2023-05-10T07:18:31;25.80;;;23.85;;
12328;SDS011;6230;52.390;10.256;2023-05-10T07:20:56;22.77;;;21.05;;
12328;SDS011;6230;52.390;10.256;2023-05-10T07:23:22;24.10;;;22.25;;
12328;SDS011;6230;52.390;10.256;2023-05-10T07:25:48;23.30;;;21.40;;
12328;SDS011;6230;52.390;10.256;2023-05-10T07:28:16;22.38;;;20.48;;
12328;SDS011;6230;52.390;10.256;2023-05-10T07:30:42;25.27;;;23.02;;
12328;SDS011;6230;52.390;10.256;2023-05-10T07:33:08;22.58;;;20.27;;
12328;SDS011;6230;52.390;10.256;2023-05-10T07:35:35;22.83;;;20.83;;
12328;SDS011;6230;52.390;10.256;2023-05-10T07:38:01;22.00;;;20.10;;
12328;SDS011;6230;52.390;10.256;2023-05-10T07:40:27;20.33;;;18.50;;
12328;SDS011;6230;52.390;10.256;2023-05-10T07:42:53;21.97;;;20.20;;
12328;SDS011;6230;52.390;10.256;2023-05-10T07:45:19;22.53;;;20.60;;
12328;SDS011;6230;52.390;10.256;2023-05-10T07:47:44;23.47;;;21.43;;
12328;SDS011;6230;52.390;10.256;2023-05-10T07:50:10;25.03;;;23.23;;
12328;SDS011;6230;52.390;10.256;2023-05-10T07:52:36;22.25;;;20.58;;
12328;SDS011;6230;52.390;10.256;2023-05-10T07:55:01;22.80;;;20.98;;
12328;SDS011;6230;52.390;10.256;2023-05-10T07:57:27;24.65;;;22.75;;
12328;SDS011;6230;52.390;10.256;2023-05-10T07:59:52;24.70;;;22.85;;
12328;SDS011;6230;52.390;10.256;2023-05-10T08:02:18;24.50;;;22.30;;
12328;SDS011;6230;52.390;10.256;2023-05-10T08:04:43;24.85;;;22.95;;
12328;SDS011;6230;52.390;10.256;2023-05-10T08:07:09;25.10;;;23.30;;
12328;SDS011;6230;52.390;10.256;2023-05-10T08:09:35;25.50;;;23.70;;
12328;SDS011;6230;52.390;10.256;2023-05-10T08:12:01;25.67;;;23.67;;
12328;SDS011;6230;52.390;10.256;2023-05-10T08:14:30;24.60;;;22.80;;
12328;SDS011;6230;52.390;10.256;2023-05-10T08:16:55;25.92;;;23.60;;
12328;SDS011;6230;52.390;10.256;2023-05-10T08:19:21;26.80;;;24.90;;
12328;SDS011;6230;52.390;10.256;2023-05-10T08:21:47;25.13;;;23.52;;
12328;SDS011;6230;52.390;10.256;2023-05-10T08:24:13;24.67;;;23.08;;
12328;SDS011;6230;52.390;10.256;2023-05-10T08:26:38;23.42;;;21.83;;
12328;SDS011;6230;52.390;10.256;2023-05-10T08:29:04;28.10;;;25.98;;
12328;SDS011;6230;52.390;10.256;2023-05-10T08:31:30;27.85;;;26.05;;
12328;SDS011;6230;52.390;10.256;2023-05-10T08:33:55;28.13;;;26.42;;
12328;SDS011;6230;52.390;10.256;2023-05-10T08:36:21;27.33;;;25.58;;
12328;SDS011;6230;52.390;10.256;2023-05-10T08:38:50;25.27;;;23.65;;
12328;SDS011;6230;52.390;10.256;2023-05-10T08:41:17;25.73;;;23.83;;
12328;SDS011;6230;52.390;10.256;2023-05-10T08:43:46;26.30;;;24.55;;
12328;SDS011;6230;52.390;10.256;2023-05-10T08:46:13;27.98;;;26.20;;
12328;SDS011;6230;52.390;10.256;2023-05-10T08:48:43;26.92;;;25.13;;
12328;SDS011;6230;52.390;10.256;2023-05-10T08:51:13;27.08;;;25.27;;
12328;SDS011;6230;52.390;10.256;2023-05-10T08:53:40;28.25;;;26.52;;
12328;SDS011;6230;52.390;10.256;2023-05-10T08:56:05;23.70;;;22.10;;
12328;SDS011;6230;52.390;10.256;2023-05-10T08:58:32;25.50;;;24.00;;
12328;SDS011;6230;52.390;10.256;2023-05-10T09:00:57;28.33;;;26.63;;
12328;SDS011;6230;52.390;10.256;2023-05-10T09:03:24;25.58;;;23.92;;
12328;SDS011;6230;52.390;10.256;2023-05-10T09:05:49;24.25;;;22.80;;
12328;SDS011;6230;52.390;10.256;2023-05-10T09:08:15;23.83;;;22.38;;
12328;SDS011;6230;52.390;10.256;2023-05-10T09:10:42;25.10;;;23.60;;
12328;SDS011;6230;52.390;10.256;2023-05-10T09:13:09;19.67;;;18.48;;
12328;SDS011;6230;52.390;10.256;2023-05-10T09:15:36;19.73;;;18.58;;
12328;SDS011;6230;52.390;10.256;2023-05-10T09:18:03;16.58;;;15.68;;
12328;SDS011;6230;52.390;10.256;2023-05-10T09:20:28;18.80;;;17.63;;
12328;SDS011;6230;52.390;10.256;2023-05-10T09:22:54;18.08;;;17.17;;
12328;SDS011;6230;52.390;10.256;2023-05-10T09:25:20;17.27;;;16.35;;
12328;SDS011;6230;52.390;10.256;2023-05-10T09:27:46;20.75;;;19.55;;
12328;SDS011;6230;52.390;10.256;2023-05-10T09:30:16;18.45;;;17.45;;
12328;SDS011;6230;52.390;10.256;2023-05-10T09:32:44;18.75;;;17.70;;
12328;SDS011;6230;52.390;10.256;2023-05-10T09:35:15;21.02;;;19.65;;
12328;SDS011;6230;52.390;10.256;2023-05-10T09:37:44;22.17;;;20.98;;
12328;SDS011;6230;52.390;10.256;2023-05-10T09:40:19;17.83;;;16.95;;
12328;SDS011;6230;52.390;10.256;2023-05-10T09:42:53;16.15;;;15.38;;
12328;SDS011;6230;52.390;10.256;2023-05-10T09:45:23;16.75;;;15.85;;
12328;SDS011;6230;52.390;10.256;2023-05-10T09:47:50;19.80;;;18.70;;
12328;SDS011;6230;52.390;10.256;2023-05-10T09:50:16;15.98;;;15.20;;
12328;SDS011;6230;52.390;10.256;2023-05-10T09:55:16;19.67;;;18.77;;
12328;SDS011;6230;52.390;10.256;2023-05-10T09:57:43;18.00;;;17.02;;
12328;SDS011;6230;52.390;10.256;2023-05-10T10:00:09;16.08;;;15.27;;
12328;SDS011;6230;52.390;10.256;2023-05-10T10:02:35;17.17;;;16.30;;
12328;SDS011;6230;52.390;10.256;2023-05-10T10:05:01;17.88;;;16.98;;
12328;SDS011;6230;52.390;10.256;2023-05-10T10:07:28;17.38;;;16.38;;
12328;SDS011;6230;52.390;10.256;2023-05-10T10:09:54;15.98;;;14.98;;
12328;SDS011;6230;52.390;10.256;2023-05-10T10:12:20;16.40;;;15.55;;
12328;SDS011;6230;52.390;10.256;2023-05-10T10:14:46;18.20;;;17.27;;
12328;SDS011;6230;52.390;10.256;2023-05-10T10:17:13;17.92;;;16.92;;
12328;SDS011;6230;52.390;10.256;2023-05-10T10:19:38;18.40;;;17.48;;
12328;SDS011;6230;52.390;10.256;2023-05-10T10:22:05;16.80;;;15.90;;
12328;SDS011;6230;52.390;10.256;2023-05-10T10:24:31;19.05;;;18.13;;
12328;SDS011;6230;52.390;10.256;2023-05-10T10:26:57;17.20;;;16.20;;
12328;SDS011;6230;52.390;10.256;2023-05-10T10:29:58;20.05;;;18.90;;
12328;SDS011;6230;52.390;10.256;2023-05-10T10:35:18;18.15;;;17.13;;
12328;SDS011;6230;52.390;10.256;2023-05-10T10:37:44;19.80;;;18.63;;
12328;SDS011;6230;52.390;10.256;2023-05-10T10:40:27;19.50;;;18.40;;
12328;SDS011;6230;52.390;10.256;2023-05-10T10:42:56;18.67;;;17.67;;
12328;SDS011;6230;52.390;10.256;2023-05-10T10:45:23;21.02;;;19.80;;
12328;SDS011;6230;52.390;10.256;2023-05-10T10:48:19;18.67;;;17.65;;
12328;SDS011;6230;52.390;10.256;2023-05-10T10:50:46;18.70;;;17.60;;
12328;SDS011;6230;52.390;10.256;2023-05-10T10:53:12;21.17;;;20.05;;
12328;SDS011;6230;52.390;10.256;2023-05-10T10:55:47;21.10;;;19.88;;
12328;SDS011;6230;52.390;10.256;2023-05-10T10:58:28;18.85;;;17.75;;
12328;SDS011;6230;52.390;10.256;2023-05-10T11:03:40;22.52;;;21.20;;
12328;SDS011;6230;52.390;10.256;2023-05-10T11:06:30;18.63;;;17.50;;
12328;SDS011;6230;52.390;10.256;2023-05-10T11:08:57;20.13;;;18.85;;
12328;SDS011;6230;52.390;10.256;2023-05-10T11:11:23;21.35;;;20.20;;
12328;SDS011;6230;52.390;10.256;2023-05-10T11:13:48;22.30;;;20.85;;
12328;SDS011;6230;52.390;10.256;2023-05-10T11:16:18;20.08;;;18.88;;
12328;SDS011;6230;52.390;10.256;2023-05-10T11:18:57;22.15;;;20.85;;
12328;SDS011;6230;52.390;10.256;2023-05-10T11:21:24;17.35;;;16.25;;
12328;SDS011;6230;52.390;10.256;2023-05-10T11:23:54;17.98;;;16.90;;
12328;SDS011;6230;52.390;10.256;2023-05-10T11:26:34;19.35;;;18.25;;
12328;SDS011;6230;52.390;10.256;2023-05-10T11:29:00;16.67;;;15.57;;
12328;SDS011;6230;52.390;10.256;2023-05-10T11:31:27;16.45;;;15.52;;
12328;SDS011;6230;52.390;10.256;2023-05-10T11:33:56;14.95;;;14.05;;
12328;SDS011;6230;52.390;10.256;2023-05-10T11:36:25;12.85;;;12.15;;
12328;SDS011;6230;52.390;10.256;2023-05-10T11:38:52;17.48;;;16.38;;
12328;SDS011;6230;52.390;10.256;2023-05-10T11:41:19;14.73;;;13.93;;
12328;SDS011;6230;52.390;10.256;2023-05-10T11:43:51;11.07;;;10.48;;
12328;SDS011;6230;52.390;10.256;2023-05-10T11:46:19;13.88;;;13.07;;
12328;SDS011;6230;52.390;10.256;2023-05-10T11:48:49;11.98;;;11.32;;
12328;SDS011;6230;52.390;10.256;2023-05-10T11:51:19;15.10;;;14.20;;
12328;SDS011;6230;52.390;10.256;2023-05-10T11:53:46;10.55;;;9.80;;
12328;SDS011;6230;52.390;10.256;2023-05-10T11:56:12;12.07;;;11.38;;
12328;SDS011;6230;52.390;10.256;2023-05-10T11:58:37;14.65;;;13.75;;
12328;SDS011;6230;52.390;10.256;2023-05-10T12:01:04;15.50;;;14.52;;
12328;SDS011;6230;52.390;10.256;2023-05-10T12:03:31;12.32;;;11.60;;
12328;SDS011;6230;52.390;10.256;2023-05-10T12:05:58;13.23;;;12.48;;
12328;SDS011;6230;52.390;10.256;2023-05-10T12:08:25;16.77;;;15.82;;
12328;SDS011;6230;52.390;10.256;2023-05-10T12:10:52;13.48;;;12.77;;
12328;SDS011;6230;52.390;10.256;2023-05-10T12:13:28;16.65;;;15.65;;
12328;SDS011;6230;52.390;10.256;2023-05-10T12:15:54;17.20;;;16.10;;
12328;SDS011;6230;52.390;10.256;2023-05-10T12:18:23;16.70;;;15.80;;
12328;SDS011;6230;52.390;10.256;2023-05-10T12:20:52;16.83;;;15.85;;
12328;SDS011;6230;52.390;10.256;2023-05-10T12:23:20;14.50;;;13.70;;
12328;SDS011;6230;52.390;10.256;2023-05-10T12:25:46;22.27;;;20.35;;
12328;SDS011;6230;52.390;10.256;2023-05-10T12:28:12;16.95;;;15.88;;
12328;SDS011;6230;52.390;10.256;2023-05-10T12:30:37;25.08;;;22.58;;
12328;SDS011;6230;52.390;10.256;2023-05-10T12:35:32;15.60;;;14.52;;
12328;SDS011;6230;52.390;10.256;2023-05-10T12:37:58;14.45;;;13.45;;
12328;SDS011;6230;52.390;10.256;2023-05-10T12:40:24;15.07;;;14.07;;
12328;SDS011;6230;52.390;10.256;2023-05-10T12:42:49;18.27;;;16.77;;
12328;SDS011;6230;52.390;10.256;2023-05-10T12:45:17;23.05;;;21.55;;
12328;SDS011;6230;52.390;10.256;2023-05-10T12:47:43;17.00;;;15.90;;
12328;SDS011;6230;52.390;10.256;2023-05-10T12:50:08;18.13;;;17.13;;
12328;SDS011;6230;52.390;10.256;2023-05-10T12:52:34;21.75;;;20.45;;
12328;SDS011;6230;52.390;10.256;2023-05-10T12:55:00;27.80;;;26.20;;
12328;SDS011;6230;52.390;10.256;2023-05-10T12:57:26;31.55;;;29.70;;
12328;SDS011;6230;52.390;10.256;2023-05-10T12:59:52;27.15;;;25.77;;
12328;SDS011;6230;52.390;10.256;2023-05-10T13:02:18;24.42;;;23.17;;
12328;SDS011;6230;52.390;10.256;2023-05-10T13:04:44;30.25;;;28.77;;
12328;SDS011;6230;52.390;10.256;2023-05-10T13:07:11;27.48;;;26.05;;
12328;SDS011;6230;52.390;10.256;2023-05-10T13:09:36;23.92;;;22.70;;
12328;SDS011;6230;52.390;10.256;2023-05-10T13:12:02;26.50;;;25.15;;
12328;SDS011;6230;52.390;10.256;2023-05-10T13:14:28;25.60;;;24.20;;
12328;SDS011;6230;52.390;10.256;2023-05-10T13:16:55;26.83;;;25.58;;
12328;SDS011;6230;52.390;10.256;2023-05-10T13:19:20;15.55;;;14.63;;
12328;SDS011;6230;52.390;10.256;2023-05-10T13:21:46;19.63;;;18.42;;
12328;SDS011;6230;52.390;10.256;2023-05-10T13:24:11;6.85;;;6.35;;
12328;SDS011;6230;52.390;10.256;2023-05-10T13:26:40;10.93;;;10.25;;
12328;SDS011;6230;52.390;10.256;2023-05-10T13:29:06;27.20;;;25.92;;
12328;SDS011;6230;52.390;10.256;2023-05-10T13:31:32;12.98;;;12.23;;
12328;SDS011;6230;52.390;10.256;2023-05-10T13:33:58;13.63;;;12.63;;
12328;SDS011;6230;52.390;10.256;2023-05-10T13:36:24;8.15;;;7.45;;
12328;SDS011;6230;52.390;10.256;2023-05-10T13:38:49;13.07;;;12.38;;
12328;SDS011;6230;52.390;10.256;2023-05-10T13:41:15;9.75;;;9.05;;
12328;SDS011;6230;52.390;10.256;2023-05-10T13:43:41;9.15;;;8.57;;
12328;SDS011;6230;52.390;10.256;2023-05-10T13:46:06;10.38;;;9.63;;
12328;SDS011;6230;52.390;10.256;2023-05-10T13:48:32;10.52;;;9.93;;
12328;SDS011;6230;52.390;10.256;2023-05-10T13:50:57;7.38;;;6.68;;
12328;SDS011;6230;52.390;10.256;2023-05-10T13:53:23;6.15;;;5.53;;
12328;SDS011;6230;52.390;10.256;2023-05-10T13:55:48;18.85;;;17.70;;
12328;SDS011;6230;52.390;10.256;2023-05-10T13:58:14;7.40;;;6.80;;
12328;SDS011;6230;52.390;10.256;2023-05-10T14:00:39;8.65;;;8.18;;
12328;SDS011;6230;52.390;10.256;2023-05-10T14:03:05;13.38;;;12.65;;
12328;SDS011;6230;52.390;10.256;2023-05-10T14:05:31;8.68;;;8.07;;
12328;SDS011;6230;52.390;10.256;2023-05-10T14:07:57;8.18;;;7.53;;
12328;SDS011;6230;52.390;10.256;2023-05-10T14:10:23;7.68;;;6.47;;
12328;SDS011;6230;52.390;10.256;2023-05-10T14:12:49;7.53;;;6.93;;
12328;SDS011;6230;52.390;10.256;2023-05-10T14:15:15;6.07;;;5.63;;
12328;SDS011;6230;52.390;10.256;2023-05-10T14:17:40;9.52;;;8.82;;
12328;SDS011;6230;52.390;10.256;2023-05-10T14:20:06;7.97;;;7.40;;
12328;SDS011;6230;52.390;10.256;2023-05-10T14:22:32;6.20;;;5.88;;
12328;SDS011;6230;52.390;10.256;2023-05-10T14:24:58;27.25;;;25.90;;
12328;SDS011;6230;52.390;10.256;2023-05-10T14:27:23;10.18;;;9.40;;
12328;SDS011;6230;52.390;10.256;2023-05-10T14:29:49;7.97;;;7.28;;
12328;SDS011;6230;52.390;10.256;2023-05-10T14:32:14;8.70;;;8.20;;
12328;SDS011;6230;52.390;10.256;2023-05-10T14:34:40;12.07;;;11.20;;
12328;SDS011;6230;52.390;10.256;2023-05-10T14:37:06;11.73;;;10.93;;
12328;SDS011;6230;52.390;10.256;2023-05-10T14:39:31;7.45;;;6.97;;
12328;SDS011;6230;52.390;10.256;2023-05-10T14:41:58;11.02;;;10.35;;
12328;SDS011;6230;52.390;10.256;2023-05-10T14:44:23;7.05;;;6.35;;
12328;SDS011;6230;52.390;10.256;2023-05-10T14:46:49;6.20;;;5.70;;
12328;SDS011;6230;52.390;10.256;2023-05-10T14:49:15;7.97;;;7.28;;
12328;SDS011;6230;52.390;10.256;2023-05-10T14:51:41;7.53;;;6.93;;